<?xml version='1.0' encoding='UTF-8'?>
<gpx xmlns="http://www.topografix.com/GPX/1/1" creator="www.balnam.be" version="1.1" xmlns:xsi="http://www.w3.org/2001/XMLSchema-instance" xsi:schemaLocation="http://www.topografix.com/GPX/1/1 http://www.topografix.com/GPX/1/1/gpx.xsd">
<trk>
<name>nslnt1</name>
<cmt>r</cmt>
<desc>Nettinne Chemin n°1 Place de l'Eglise / Rue de l'Ancienne Scierie / ?</desc>
<link href="https://chemins.be/nettinne/chemin/1"/><trkseg>
<trkpt lat="50.281700" lon="5.246890"><time>2026-05-02T17:01:13Z</time></trkpt>
<trkpt lat="50.282698" lon="5.249140"><time>2026-05-02T17:11:13Z</time></trkpt>
<trkpt lat="50.282841" lon="5.250532"><time>2026-05-02T17:21:13Z</time></trkpt>
<trkpt lat="50.287239" lon="5.259679"><time>2026-05-02T17:31:13Z</time></trkpt>
<trkpt lat="50.288249" lon="5.258112"><time>2026-05-02T17:41:13Z</time></trkpt>
<trkpt lat="50.289411" lon="5.260155"><time>2026-05-02T17:51:13Z</time></trkpt>
<trkpt lat="50.291727" lon="5.263019"><time>2026-05-02T18:01:13Z</time></trkpt>
<trkpt lat="50.292259" lon="5.262875"><time>2026-05-02T18:11:13Z</time></trkpt>
<trkpt lat="50.292953" lon="5.262565"><time>2026-05-02T18:21:13Z</time></trkpt>
<trkpt lat="50.294228" lon="5.262884"><time>2026-05-02T18:31:13Z</time></trkpt>
<trkpt lat="50.294428" lon="5.263673"><time>2026-05-02T18:41:13Z</time></trkpt>
<trkpt lat="50.294862" lon="5.264566"><time>2026-05-02T18:51:13Z</time></trkpt>
<trkpt lat="50.295921" lon="5.265989"><time>2026-05-02T19:01:13Z</time></trkpt>
<trkpt lat="50.296410" lon="5.266630"><time>2026-05-02T19:11:13Z</time></trkpt>
<trkpt lat="50.297227" lon="5.266898"><time>2026-05-02T19:21:13Z</time></trkpt>
<trkpt lat="50.299394" lon="5.269157"><time>2026-05-02T19:31:13Z</time></trkpt>
<trkpt lat="50.299772" lon="5.269136"><time>2026-05-02T19:41:13Z</time></trkpt>
<trkpt lat="50.300973" lon="5.269552"><time>2026-05-02T19:51:13Z</time></trkpt>
</trkseg></trk>
<trk>
<name>nslnt1</name>
<cmt>v</cmt>
<desc>Nettinne Chemin n°1 Place de l'Eglise / Rue de l'Ancienne Scierie / ?</desc>
<link href="https://chemins.be/nettinne/chemin/1"/><trkseg>
<trkpt lat="50.300973" lon="5.269552"><time>2026-05-02T19:51:13Z</time></trkpt>
<trkpt lat="50.302949" lon="5.270951"><time>2026-05-02T20:01:13Z</time></trkpt>
<trkpt lat="50.303278" lon="5.271533"><time>2026-05-02T20:11:13Z</time></trkpt>
<trkpt lat="50.304659" lon="5.274241"><time>2026-05-02T20:21:13Z</time></trkpt>
<trkpt lat="50.306101" lon="5.278438"><time>2026-05-02T20:31:13Z</time></trkpt>
<trkpt lat="50.306398" lon="5.279552"><time>2026-05-02T20:41:13Z</time></trkpt>
<trkpt lat="50.306827" lon="5.281021"><time>2026-05-02T20:51:13Z</time></trkpt>
<trkpt lat="50.307161" lon="5.281926"><time>2026-05-02T21:01:13Z</time></trkpt>
<trkpt lat="50.307466" lon="5.282086"><time>2026-05-02T21:11:13Z</time></trkpt>
<trkpt lat="50.307767" lon="5.283804"><time>2026-05-02T21:21:13Z</time></trkpt>
<trkpt lat="50.308621" lon="5.284874"><time>2026-05-02T21:31:13Z</time></trkpt>
</trkseg>
</trk>
<trk>
<name>nslnt10</name>
<cmt>r</cmt>
<desc>Nettinne Chemin n°10 Rue du Bois des Sarts / ?</desc>
<link href="https://chemins.be/nettinne/chemin/10"/><trkseg>
<trkpt lat="50.292599" lon="5.257183"><time>2026-05-02T17:01:13Z</time></trkpt>
<trkpt lat="50.292253" lon="5.255464"><time>2026-05-02T17:11:13Z</time></trkpt>
</trkseg></trk>
<trk>
<name>nslnt10</name>
<cmt>v</cmt>
<desc>Nettinne Chemin n°10 Rue du Bois des Sarts / ?</desc>
<link href="https://chemins.be/nettinne/chemin/10"/><trkseg>
<trkpt lat="50.292253" lon="5.255464"><time>2026-05-02T17:11:13Z</time></trkpt>
<trkpt lat="50.292148" lon="5.255055"><time>2026-05-02T17:21:13Z</time></trkpt>
<trkpt lat="50.290731" lon="5.252264"><time>2026-05-02T17:31:13Z</time></trkpt>
<trkpt lat="50.289970" lon="5.250552"><time>2026-05-02T17:41:13Z</time></trkpt>
<trkpt lat="50.289788" lon="5.249734"><time>2026-05-02T17:51:13Z</time></trkpt>
<trkpt lat="50.289935" lon="5.249302"><time>2026-05-02T18:01:13Z</time></trkpt>
<trkpt lat="50.290162" lon="5.249026"><time>2026-05-02T18:11:13Z</time></trkpt>
<trkpt lat="50.290997" lon="5.249167"><time>2026-05-02T18:21:13Z</time></trkpt>
<trkpt lat="50.291235" lon="5.248667"><time>2026-05-02T18:31:13Z</time></trkpt>
<trkpt lat="50.290967" lon="5.248353"><time>2026-05-02T18:41:13Z</time></trkpt>
<trkpt lat="50.290990" lon="5.247778"><time>2026-05-02T18:51:13Z</time></trkpt>
<trkpt lat="50.291664" lon="5.247012"><time>2026-05-02T19:01:13Z</time></trkpt>
<trkpt lat="50.291783" lon="5.246361"><time>2026-05-02T19:11:13Z</time></trkpt>
<trkpt lat="50.291706" lon="5.245798"><time>2026-05-02T19:21:13Z</time></trkpt>
</trkseg>
</trk>
<trk>
<name>nslnt11</name>
<cmt>v</cmt>
<desc>Nettinne Chemin n°11 Rue Bois-des-Sarts</desc>
<link href="https://chemins.be/nettinne/chemin/11"/><trkseg>
<trkpt lat="50.294424" lon="5.263070"><time>2026-05-02T17:01:13Z</time></trkpt>
<trkpt lat="50.294936" lon="5.263079"><time>2026-05-02T17:11:13Z</time></trkpt>
<trkpt lat="50.297143" lon="5.261366"><time>2026-05-02T17:21:13Z</time></trkpt>
<trkpt lat="50.299244" lon="5.260606"><time>2026-05-02T17:31:13Z</time></trkpt>
<trkpt lat="50.299770" lon="5.260096"><time>2026-05-02T17:41:13Z</time></trkpt>
<trkpt lat="50.300227" lon="5.260315"><time>2026-05-02T17:51:13Z</time></trkpt>
<trkpt lat="50.300485" lon="5.260587"><time>2026-05-02T18:01:13Z</time></trkpt>
<trkpt lat="50.301656" lon="5.261465"><time>2026-05-02T18:11:13Z</time></trkpt>
<trkpt lat="50.303222" lon="5.262435"><time>2026-05-02T18:21:13Z</time></trkpt>
<trkpt lat="50.304404" lon="5.264212"><time>2026-05-02T18:31:13Z</time></trkpt>
<trkpt lat="50.304518" lon="5.264650"><time>2026-05-02T18:41:13Z</time></trkpt>
<trkpt lat="50.304941" lon="5.265753"><time>2026-05-02T18:51:13Z</time></trkpt>
<trkpt lat="50.305352" lon="5.267206"><time>2026-05-02T19:01:13Z</time></trkpt>
<trkpt lat="50.305883" lon="5.267132"><time>2026-05-02T19:11:13Z</time></trkpt>
</trkseg>
</trk>
<trk>
<name>nslnt12</name>
<cmt>v</cmt>
<desc>Nettinne Chemin n°12 </desc>
<link href="https://chemins.be/nettinne/chemin/12"/><trkseg>
<trkpt lat="50.300485" lon="5.260601"><time>2026-05-02T17:01:13Z</time></trkpt>
<trkpt lat="50.301166" lon="5.262116"><time>2026-05-02T17:11:13Z</time></trkpt>
</trkseg></trk>
<trk>
<name>nslnt12</name>
<cmt>b</cmt>
<desc>Nettinne Chemin n°12 </desc>
<link href="https://chemins.be/nettinne/chemin/12"/><trkseg>
<trkpt lat="50.301166" lon="5.262116"><time>2026-05-02T17:11:13Z</time></trkpt>
<trkpt lat="50.301680" lon="5.263024"><time>2026-05-02T17:21:13Z</time></trkpt>
<trkpt lat="50.302293" lon="5.264018"><time>2026-05-02T17:31:13Z</time></trkpt>
<trkpt lat="50.304650" lon="5.268541"><time>2026-05-02T17:41:13Z</time></trkpt>
<trkpt lat="50.306523" lon="5.272690"><time>2026-05-02T17:51:13Z</time></trkpt>
<trkpt lat="50.306673" lon="5.273072"><time>2026-05-02T18:01:13Z</time></trkpt>
</trkseg>
</trk>
<trk>
<name>nslnt13</name>
<cmt>s</cmt>
<desc>Nettinne Chemin n°13 </desc>
<link href="https://chemins.be/nettinne/chemin/13"/><trkseg>
<trkpt lat="50.281514" lon="5.254661"><time>2026-05-02T17:01:13Z</time></trkpt>
<trkpt lat="50.283041" lon="5.254885"><time>2026-05-02T17:11:13Z</time></trkpt>
<trkpt lat="50.284994" lon="5.256999"><time>2026-05-02T17:21:13Z</time></trkpt>
<trkpt lat="50.285679" lon="5.257952"><time>2026-05-02T17:31:13Z</time></trkpt>
<trkpt lat="50.286393" lon="5.257488"><time>2026-05-02T17:41:13Z</time></trkpt>
</trkseg>
</trk>
<trk>
<name>nslnt14</name>
<cmt>v</cmt>
<desc>Nettinne Chemin n°14 </desc>
<link href="https://chemins.be/nettinne/chemin/14"/><trkseg>
<trkpt lat="50.290441" lon="5.241803"><time>2026-05-02T17:01:13Z</time></trkpt>
<trkpt lat="50.290363" lon="5.241437"><time>2026-05-02T17:11:13Z</time></trkpt>
<trkpt lat="50.290166" lon="5.241321"><time>2026-05-02T17:21:13Z</time></trkpt>
<trkpt lat="50.289923" lon="5.241429"><time>2026-05-02T17:31:13Z</time></trkpt>
<trkpt lat="50.289447" lon="5.241364"><time>2026-05-02T17:41:13Z</time></trkpt>
<trkpt lat="50.289121" lon="5.241653"><time>2026-05-02T17:51:13Z</time></trkpt>
<trkpt lat="50.288442" lon="5.243380"><time>2026-05-02T18:01:13Z</time></trkpt>
<trkpt lat="50.288093" lon="5.243233"><time>2026-05-02T18:11:13Z</time></trkpt>
<trkpt lat="50.287614" lon="5.242397"><time>2026-05-02T18:21:13Z</time></trkpt>
</trkseg></trk>
<trk>
<name>nslnt14</name>
<cmt>s</cmt>
<desc>Nettinne Chemin n°14 </desc>
<link href="https://chemins.be/nettinne/chemin/14"/><trkseg>
<trkpt lat="50.287614" lon="5.242397"><time>2026-05-02T18:21:13Z</time></trkpt>
<trkpt lat="50.286922" lon="5.242328"><time>2026-05-02T18:31:13Z</time></trkpt>
<trkpt lat="50.286698" lon="5.242268"><time>2026-05-02T18:41:13Z</time></trkpt>
<trkpt lat="50.285138" lon="5.241678"><time>2026-05-02T18:51:13Z</time></trkpt>
</trkseg>
</trk>
<trk>
<name>nslnt15</name>
<cmt>v</cmt>
<desc>Nettinne Chemin n°15 Chemin de Valenne</desc>
<link href="https://chemins.be/nettinne/chemin/15"/><trkseg>
<trkpt lat="50.291835" lon="5.263063"><time>2026-05-02T17:01:13Z</time></trkpt>
<trkpt lat="50.291851" lon="5.263302"><time>2026-05-02T17:11:13Z</time></trkpt>
<trkpt lat="50.291606" lon="5.263920"><time>2026-05-02T17:21:13Z</time></trkpt>
<trkpt lat="50.291172" lon="5.265016"><time>2026-05-02T17:31:13Z</time></trkpt>
<trkpt lat="50.290938" lon="5.266274"><time>2026-05-02T17:41:13Z</time></trkpt>
<trkpt lat="50.289871" lon="5.268149"><time>2026-05-02T17:51:13Z</time></trkpt>
</trkseg>
</trk>
<trk>
<name>nslnt16</name>
<cmt>v</cmt>
<desc>Nettinne Chemin n°16 </desc>
<link href="https://chemins.be/nettinne/chemin/16"/><trkseg>
<trkpt lat="50.289047" lon="5.266589"><time>2026-05-02T17:01:13Z</time></trkpt>
<trkpt lat="50.289267" lon="5.268390"><time>2026-05-02T17:11:13Z</time></trkpt>
<trkpt lat="50.288843" lon="5.269701"><time>2026-05-02T17:21:13Z</time></trkpt>
<trkpt lat="50.288361" lon="5.270771"><time>2026-05-02T17:31:13Z</time></trkpt>
<trkpt lat="50.288172" lon="5.270873"><time>2026-05-02T17:41:13Z</time></trkpt>
<trkpt lat="50.287936" lon="5.270764"><time>2026-05-02T17:51:13Z</time></trkpt>
<trkpt lat="50.287110" lon="5.269472"><time>2026-05-02T18:01:13Z</time></trkpt>
</trkseg>
</trk>
<trk>
<name>nslnt17</name>
<cmt>v</cmt>
<desc>Nettinne Chemin n°17 Rue de la Grotte / Route de France</desc>
<link href="https://chemins.be/nettinne/chemin/17"/><trkseg>
<trkpt lat="50.287472" lon="5.261044"><time>2026-05-02T17:01:13Z</time></trkpt>
<trkpt lat="50.286434" lon="5.260323"><time>2026-05-02T17:11:13Z</time></trkpt>
</trkseg></trk>
<trk>
<name>nslnt17</name>
<cmt>r</cmt>
<desc>Nettinne Chemin n°17 Rue de la Grotte / Route de France</desc>
<link href="https://chemins.be/nettinne/chemin/17"/><trkseg>
<trkpt lat="50.286434" lon="5.260323"><time>2026-05-02T17:11:13Z</time></trkpt>
<trkpt lat="50.285693" lon="5.259636"><time>2026-05-02T17:21:13Z</time></trkpt>
<trkpt lat="50.285238" lon="5.259192"><time>2026-05-02T17:31:13Z</time></trkpt>
<trkpt lat="50.284655" lon="5.258957"><time>2026-05-02T17:41:13Z</time></trkpt>
<trkpt lat="50.284472" lon="5.259459"><time>2026-05-02T17:51:13Z</time></trkpt>
<trkpt lat="50.285036" lon="5.262009"><time>2026-05-02T18:01:13Z</time></trkpt>
</trkseg>
</trk>
<trk>
<name>nslnt18</name>
<cmt>v</cmt>
<desc>Nettinne Chemin n°18 Rue D'En Bry</desc>
<link href="https://chemins.be/nettinne/chemin/18"/><trkseg>
<trkpt lat="50.300722" lon="5.270684"><time>2026-05-02T17:01:13Z</time></trkpt>
<trkpt lat="50.301158" lon="5.273486"><time>2026-05-02T17:11:13Z</time></trkpt>
</trkseg>
</trk>
<trk>
<name>nslnt19</name>
<cmt>v</cmt>
<desc>Nettinne Chemin n°19 </desc>
<link href="https://chemins.be/nettinne/chemin/19"/><trkseg>
<trkpt lat="50.295393" lon="5.255186"><time>2026-05-02T17:01:13Z</time></trkpt>
<trkpt lat="50.295672" lon="5.255121"><time>2026-05-02T17:11:13Z</time></trkpt>
<trkpt lat="50.296138" lon="5.255354"><time>2026-05-02T17:21:13Z</time></trkpt>
</trkseg>
</trk>
<trk>
<name>nslnt2</name>
<cmt>r</cmt>
<desc>Nettinne Chemin n°2 Rue Saint-Donat</desc>
<link href="https://chemins.be/nettinne/chemin/2"/><trkseg>
<trkpt lat="50.287546" lon="5.259572"><time>2026-05-02T17:01:13Z</time></trkpt>
<trkpt lat="50.287570" lon="5.261060"><time>2026-05-02T17:11:13Z</time></trkpt>
<trkpt lat="50.287710" lon="5.261652"><time>2026-05-02T17:21:13Z</time></trkpt>
<trkpt lat="50.287874" lon="5.263606"><time>2026-05-02T17:31:13Z</time></trkpt>
<trkpt lat="50.289065" lon="5.266576"><time>2026-05-02T17:41:13Z</time></trkpt>
<trkpt lat="50.289844" lon="5.268120"><time>2026-05-02T17:51:13Z</time></trkpt>
<trkpt lat="50.291084" lon="5.270600"><time>2026-05-02T18:01:13Z</time></trkpt>
</trkseg>
</trk>
<trk>
<name>nslnt20</name>
<cmt>s</cmt>
<desc>Nettinne Chemin n°20 </desc>
<link href="https://chemins.be/nettinne/chemin/20"/><trkseg>
<trkpt lat="50.290381" lon="5.241423"><time>2026-05-02T17:01:13Z</time></trkpt>
<trkpt lat="50.290285" lon="5.241084"><time>2026-05-02T17:11:13Z</time></trkpt>
<trkpt lat="50.290305" lon="5.240748"><time>2026-05-02T17:21:13Z</time></trkpt>
<trkpt lat="50.290389" lon="5.240385"><time>2026-05-02T17:31:13Z</time></trkpt>
</trkseg>
</trk>
<trk>
<name>nslnt21</name>
<cmt>s</cmt>
<desc>Nettinne Chemin n°21 </desc>
<link href="https://chemins.be/nettinne/chemin/21"/><trkseg>
<trkpt lat="50.280221" lon="5.249796"><time>2026-05-02T17:01:13Z</time></trkpt>
<trkpt lat="50.280601" lon="5.250659"><time>2026-05-02T17:11:13Z</time></trkpt>
<trkpt lat="50.283041" lon="5.254942"><time>2026-05-02T17:21:13Z</time></trkpt>
</trkseg>
</trk>
<trk>
<name>nslnt22</name>
<cmt>d</cmt>
<desc>Nettinne Chemin n°22 </desc>
<link href="https://chemins.be/nettinne/chemin/22"/><trkseg>
<trkpt lat="50.282187" lon="5.249032"><time>2026-05-02T17:01:13Z</time></trkpt>
<trkpt lat="50.280929" lon="5.247662"><time>2026-05-02T17:11:13Z</time></trkpt>
</trkseg>
</trk>
<trk>
<name>nslnt23</name>
<cmt>v</cmt>
<desc>Nettinne Chemin n°23 </desc>
<link href="https://chemins.be/nettinne/chemin/23"/><trkseg>
<trkpt lat="50.296003" lon="5.265879"><time>2026-05-02T17:01:13Z</time></trkpt>
<trkpt lat="50.296738" lon="5.264994"><time>2026-05-02T17:11:13Z</time></trkpt>
<trkpt lat="50.297043" lon="5.265098"><time>2026-05-02T17:21:13Z</time></trkpt>
<trkpt lat="50.297719" lon="5.266051"><time>2026-05-02T17:31:13Z</time></trkpt>
<trkpt lat="50.298382" lon="5.266359"><time>2026-05-02T17:41:13Z</time></trkpt>
<trkpt lat="50.298744" lon="5.266029"><time>2026-05-02T17:51:13Z</time></trkpt>
</trkseg></trk>
<trk>
<name>nslnt23</name>
<cmt>d</cmt>
<desc>Nettinne Chemin n°23 </desc>
<link href="https://chemins.be/nettinne/chemin/23"/><trkseg>
<trkpt lat="50.298744" lon="5.266029"><time>2026-05-02T17:51:13Z</time></trkpt>
<trkpt lat="50.299124" lon="5.265671"><time>2026-05-02T18:01:13Z</time></trkpt>
<trkpt lat="50.299918" lon="5.265391"><time>2026-05-02T18:11:13Z</time></trkpt>
</trkseg>
</trk>
<trk>
<name>nslnt24</name>
<cmt>b</cmt>
<desc>Nettinne Chemin n°24 </desc>
<link href="https://chemins.be/nettinne/chemin/24"/><trkseg>
<trkpt lat="50.306153" lon="5.278691"><time>2026-05-02T17:01:13Z</time></trkpt>
<trkpt lat="50.306295" lon="5.278834"><time>2026-05-02T17:11:13Z</time></trkpt>
<trkpt lat="50.306430" lon="5.278921"><time>2026-05-02T17:21:13Z</time></trkpt>
<trkpt lat="50.306520" lon="5.278895"><time>2026-05-02T17:31:13Z</time></trkpt>
<trkpt lat="50.306700" lon="5.277747"><time>2026-05-02T17:41:13Z</time></trkpt>
<trkpt lat="50.307034" lon="5.277529"><time>2026-05-02T17:51:13Z</time></trkpt>
<trkpt lat="50.307486" lon="5.277201"><time>2026-05-02T18:01:13Z</time></trkpt>
<trkpt lat="50.308296" lon="5.277076"><time>2026-05-02T18:11:13Z</time></trkpt>
<trkpt lat="50.310464" lon="5.278058"><time>2026-05-02T18:21:13Z</time></trkpt>
</trkseg>
</trk>
<trk>
<name>nslnt25</name>
<cmt>v</cmt>
<desc>Nettinne Chemin n°25 </desc>
<link href="https://chemins.be/nettinne/chemin/25"/><trkseg>
<trkpt lat="50.287586" lon="5.242452"><time>2026-05-02T17:01:13Z</time></trkpt>
<trkpt lat="50.287446" lon="5.241931"><time>2026-05-02T17:11:13Z</time></trkpt>
<trkpt lat="50.286533" lon="5.240202"><time>2026-05-02T17:21:13Z</time></trkpt>
<trkpt lat="50.286424" lon="5.239259"><time>2026-05-02T17:31:13Z</time></trkpt>
</trkseg>
</trk>
<trk>
<name>nslnt26</name>
<cmt>r</cmt>
<desc>Nettinne Chemin n°26 Rue du Monty / Rue de la Corne</desc>
<link href="https://chemins.be/nettinne/chemin/26"/><trkseg>
<trkpt lat="50.291955" lon="5.262672"><time>2026-05-02T17:01:13Z</time></trkpt>
<trkpt lat="50.291423" lon="5.260501"><time>2026-05-02T17:11:13Z</time></trkpt>
<trkpt lat="50.290850" lon="5.258947"><time>2026-05-02T17:21:13Z</time></trkpt>
<trkpt lat="50.289812" lon="5.256008"><time>2026-05-02T17:31:13Z</time></trkpt>
</trkseg></trk>
<trk>
<name>nslnt26</name>
<cmt>v</cmt>
<desc>Nettinne Chemin n°26 Rue du Monty / Rue de la Corne</desc>
<link href="https://chemins.be/nettinne/chemin/26"/><trkseg>
<trkpt lat="50.289812" lon="5.256008"><time>2026-05-02T17:31:13Z</time></trkpt>
<trkpt lat="50.289421" lon="5.255341"><time>2026-05-02T17:41:13Z</time></trkpt>
<trkpt lat="50.289132" lon="5.254339"><time>2026-05-02T17:51:13Z</time></trkpt>
<trkpt lat="50.288963" lon="5.254126"><time>2026-05-02T18:01:13Z</time></trkpt>
</trkseg>
</trk>
<trk>
<name>nslnt27</name>
<cmt>r</cmt>
<desc>Nettinne Chemin n°27 Rue du Monty</desc>
<link href="https://chemins.be/nettinne/chemin/27"/><trkseg>
<trkpt lat="50.289220" lon="5.256951"><time>2026-05-02T17:01:13Z</time></trkpt>
<trkpt lat="50.289816" lon="5.257819"><time>2026-05-02T17:11:13Z</time></trkpt>
<trkpt lat="50.290556" lon="5.258618"><time>2026-05-02T17:21:13Z</time></trkpt>
</trkseg>
</trk>
<trk>
<name>nslnt28</name>
<cmt>r</cmt>
<desc>Nettinne Chemin n°28 Rue du Bief</desc>
<link href="https://chemins.be/nettinne/chemin/28"/><trkseg>
<trkpt lat="50.288096" lon="5.258151"><time>2026-05-02T17:01:13Z</time></trkpt>
<trkpt lat="50.287986" lon="5.257223"><time>2026-05-02T17:11:13Z</time></trkpt>
</trkseg></trk>
<trk>
<name>nslnt28</name>
<cmt>b</cmt>
<desc>Nettinne Chemin n°28 Rue du Bief</desc>
<link href="https://chemins.be/nettinne/chemin/28"/><trkseg>
<trkpt lat="50.287986" lon="5.257223"><time>2026-05-02T17:11:13Z</time></trkpt>
<trkpt lat="50.287862" lon="5.257094"><time>2026-05-02T17:21:13Z</time></trkpt>
<trkpt lat="50.287697" lon="5.257414"><time>2026-05-02T17:31:13Z</time></trkpt>
<trkpt lat="50.287605" lon="5.257735"><time>2026-05-02T17:41:13Z</time></trkpt>
<trkpt lat="50.287481" lon="5.258659"><time>2026-05-02T17:51:13Z</time></trkpt>
</trkseg></trk>
<trk>
<name>nslnt28</name>
<cmt>v</cmt>
<desc>Nettinne Chemin n°28 Rue du Bief</desc>
<link href="https://chemins.be/nettinne/chemin/28"/><trkseg>
<trkpt lat="50.287481" lon="5.258659"><time>2026-05-02T17:51:13Z</time></trkpt>
<trkpt lat="50.287460" lon="5.259094"><time>2026-05-02T18:01:13Z</time></trkpt>
</trkseg>
</trk>
<trk>
<name>nslnt29bis</name>
<cmt>v</cmt>
<desc>Nettinne Chemin n°29bis </desc>
<link href="https://chemins.be/nettinne/chemin/29bis"/><trkseg>
<trkpt lat="50.287608" lon="5.259658"><time>2026-05-02T17:01:13Z</time></trkpt>
<trkpt lat="50.287781" lon="5.259352"><time>2026-05-02T17:11:13Z</time></trkpt>
<trkpt lat="50.287658" lon="5.258985"><time>2026-05-02T17:21:13Z</time></trkpt>
</trkseg>
</trk>
<trk>
<name>nslnt3</name>
<cmt>r</cmt>
<desc>Nettinne Chemin n°3 Chemin de Porcheresse</desc>
<link href="https://chemins.be/nettinne/chemin/3"/><trkseg>
<trkpt lat="50.288277" lon="5.258042"><time>2026-05-02T17:01:13Z</time></trkpt>
<trkpt lat="50.288714" lon="5.257363"><time>2026-05-02T17:11:13Z</time></trkpt>
<trkpt lat="50.289230" lon="5.256895"><time>2026-05-02T17:21:13Z</time></trkpt>
<trkpt lat="50.289866" lon="5.256009"><time>2026-05-02T17:31:13Z</time></trkpt>
</trkseg></trk>
<trk>
<name>nslnt3</name>
<cmt>v</cmt>
<desc>Nettinne Chemin n°3 Chemin de Porcheresse</desc>
<link href="https://chemins.be/nettinne/chemin/3"/><trkseg>
<trkpt lat="50.289866" lon="5.256009"><time>2026-05-02T17:31:13Z</time></trkpt>
<trkpt lat="50.290219" lon="5.255693"><time>2026-05-02T17:41:13Z</time></trkpt>
<trkpt lat="50.290588" lon="5.255672"><time>2026-05-02T17:51:13Z</time></trkpt>
<trkpt lat="50.291645" lon="5.254990"><time>2026-05-02T18:01:13Z</time></trkpt>
<trkpt lat="50.292139" lon="5.255097"><time>2026-05-02T18:11:13Z</time></trkpt>
</trkseg></trk>
<trk>
<name>nslnt3</name>
<cmt>r</cmt>
<desc>Nettinne Chemin n°3 Chemin de Porcheresse</desc>
<link href="https://chemins.be/nettinne/chemin/3"/><trkseg>
<trkpt lat="50.292139" lon="5.255097"><time>2026-05-02T18:11:13Z</time></trkpt>
<trkpt lat="50.292747" lon="5.255516"><time>2026-05-02T18:21:13Z</time></trkpt>
<trkpt lat="50.293447" lon="5.255697"><time>2026-05-02T18:31:13Z</time></trkpt>
<trkpt lat="50.294788" lon="5.255554"><time>2026-05-02T18:41:13Z</time></trkpt>
<trkpt lat="50.295375" lon="5.255158"><time>2026-05-02T18:51:13Z</time></trkpt>
<trkpt lat="50.295437" lon="5.254106"><time>2026-05-02T19:01:13Z</time></trkpt>
<trkpt lat="50.297978" lon="5.251037"><time>2026-05-02T19:11:13Z</time></trkpt>
<trkpt lat="50.300051" lon="5.249167"><time>2026-05-02T19:21:13Z</time></trkpt>
<trkpt lat="50.300306" lon="5.248778"><time>2026-05-02T19:31:13Z</time></trkpt>
</trkseg>
</trk>
<trk>
<name>nslnt30</name>
<cmt>v</cmt>
<desc>Nettinne Sentier n°30 </desc>
<link href="https://chemins.be/nettinne/sentier/30"/><trkseg>
<trkpt lat="50.283625" lon="5.259384"><time>2026-05-02T17:01:13Z</time></trkpt>
<trkpt lat="50.283823" lon="5.259202"><time>2026-05-02T17:11:13Z</time></trkpt>
<trkpt lat="50.283969" lon="5.258977"><time>2026-05-02T17:21:13Z</time></trkpt>
<trkpt lat="50.284085" lon="5.258946"><time>2026-05-02T17:31:13Z</time></trkpt>
<trkpt lat="50.284241" lon="5.259017"><time>2026-05-02T17:41:13Z</time></trkpt>
<trkpt lat="50.284468" lon="5.258916"><time>2026-05-02T17:51:13Z</time></trkpt>
<trkpt lat="50.284541" lon="5.259028"><time>2026-05-02T18:01:13Z</time></trkpt>
</trkseg>
</trk>
<trk>
<name>nslnt31</name>
<cmt>d</cmt>
<desc>Nettinne Sentier n°31 </desc>
<link href="https://chemins.be/nettinne/sentier/31"/><trkseg>
<trkpt lat="50.287862" lon="5.260490"><time>2026-05-02T17:01:13Z</time></trkpt>
<trkpt lat="50.288149" lon="5.260692"><time>2026-05-02T17:11:13Z</time></trkpt>
<trkpt lat="50.288673" lon="5.261474"><time>2026-05-02T17:21:13Z</time></trkpt>
<trkpt lat="50.289434" lon="5.261951"><time>2026-05-02T17:31:13Z</time></trkpt>
<trkpt lat="50.290791" lon="5.261991"><time>2026-05-02T17:41:13Z</time></trkpt>
</trkseg>
</trk>
<trk>
<name>nslnt32</name>
<cmt>s</cmt>
<desc>Nettinne Sentier n°32 </desc>
<link href="https://chemins.be/nettinne/sentier/32"/><trkseg>
<trkpt lat="50.291630" lon="5.263986"><time>2026-05-02T17:01:13Z</time></trkpt>
<trkpt lat="50.292109" lon="5.267096"><time>2026-05-02T17:11:13Z</time></trkpt>
<trkpt lat="50.292451" lon="5.268169"><time>2026-05-02T17:21:13Z</time></trkpt>
<trkpt lat="50.293510" lon="5.270772"><time>2026-05-02T17:31:13Z</time></trkpt>
</trkseg>
</trk>
<trk>
<name>nslnt33</name>
<cmt>r</cmt>
<desc>Nettinne Sentier n°33 Rue de la Grotte</desc>
<link href="https://chemins.be/nettinne/sentier/33"/><trkseg>
<trkpt lat="50.285072" lon="5.262024"><time>2026-05-02T17:01:13Z</time></trkpt>
<trkpt lat="50.285232" lon="5.263162"><time>2026-05-02T17:11:13Z</time></trkpt>
<trkpt lat="50.285195" lon="5.263300"><time>2026-05-02T17:21:13Z</time></trkpt>
</trkseg></trk>
<trk>
<name>nslnt33</name>
<cmt>v</cmt>
<desc>Nettinne Sentier n°33 Rue de la Grotte</desc>
<link href="https://chemins.be/nettinne/sentier/33"/><trkseg>
<trkpt lat="50.285195" lon="5.263300"><time>2026-05-02T17:21:13Z</time></trkpt>
<trkpt lat="50.285618" lon="5.264728"><time>2026-05-02T17:31:13Z</time></trkpt>
<trkpt lat="50.285902" lon="5.266254"><time>2026-05-02T17:41:13Z</time></trkpt>
<trkpt lat="50.286224" lon="5.267306"><time>2026-05-02T17:51:13Z</time></trkpt>
<trkpt lat="50.286387" lon="5.267832"><time>2026-05-02T18:01:13Z</time></trkpt>
<trkpt lat="50.286422" lon="5.268278"><time>2026-05-02T18:11:13Z</time></trkpt>
<trkpt lat="50.286652" lon="5.268715"><time>2026-05-02T18:21:13Z</time></trkpt>
<trkpt lat="50.286792" lon="5.269173"><time>2026-05-02T18:31:13Z</time></trkpt>
<trkpt lat="50.287173" lon="5.269389"><time>2026-05-02T18:41:13Z</time></trkpt>
</trkseg>
</trk>
<trk>
<name>nslnt34</name>
<cmt>v</cmt>
<desc>Nettinne Sentier n°34 </desc>
<link href="https://chemins.be/nettinne/sentier/34"/><trkseg>
<trkpt lat="50.287774" lon="5.260278"><time>2026-05-02T17:01:13Z</time></trkpt>
<trkpt lat="50.288599" lon="5.259438"><time>2026-05-02T17:11:13Z</time></trkpt>
<trkpt lat="50.288663" lon="5.259257"><time>2026-05-02T17:21:13Z</time></trkpt>
<trkpt lat="50.288799" lon="5.259091"><time>2026-05-02T17:31:13Z</time></trkpt>
</trkseg>
</trk>
<trk>
<name>nslnt35</name>
<cmt>v</cmt>
<desc>Nettinne Sentier n°35 </desc>
<link href="https://chemins.be/nettinne/sentier/35"/><trkseg>
<trkpt lat="50.288854" lon="5.258979"><time>2026-05-02T17:01:13Z</time></trkpt>
<trkpt lat="50.288991" lon="5.258743"><time>2026-05-02T17:11:13Z</time></trkpt>
<trkpt lat="50.289181" lon="5.258522"><time>2026-05-02T17:21:13Z</time></trkpt>
</trkseg></trk>
<trk>
<name>nslnt35</name>
<cmt>d</cmt>
<desc>Nettinne Sentier n°35 </desc>
<link href="https://chemins.be/nettinne/sentier/35"/><trkseg>
<trkpt lat="50.289181" lon="5.258522"><time>2026-05-02T17:21:13Z</time></trkpt>
<trkpt lat="50.289435" lon="5.258232"><time>2026-05-02T17:31:13Z</time></trkpt>
<trkpt lat="50.289780" lon="5.257818"><time>2026-05-02T17:41:13Z</time></trkpt>
</trkseg>
</trk>
<trk>
<name>nslnt36</name>
<cmt>d</cmt>
<desc>Nettinne Sentier n°36 </desc>
<link href="https://chemins.be/nettinne/sentier/36"/><trkseg>
<trkpt lat="50.292034" lon="5.258197"><time>2026-05-02T17:01:13Z</time></trkpt>
<trkpt lat="50.292237" lon="5.258692"><time>2026-05-02T17:11:13Z</time></trkpt>
<trkpt lat="50.293601" lon="5.259068"><time>2026-05-02T17:21:13Z</time></trkpt>
</trkseg>
</trk>
<trk>
<name>nslnt37</name>
<cmt>d</cmt>
<desc>Nettinne Sentier n°37 </desc>
<link href="https://chemins.be/nettinne/sentier/37"/><trkseg>
<trkpt lat="50.292250" lon="5.262875"><time>2026-05-02T17:01:13Z</time></trkpt>
<trkpt lat="50.293523" lon="5.265663"><time>2026-05-02T17:11:13Z</time></trkpt>
<trkpt lat="50.294779" lon="5.265968"><time>2026-05-02T17:21:13Z</time></trkpt>
<trkpt lat="50.295183" lon="5.266088"><time>2026-05-02T17:31:13Z</time></trkpt>
<trkpt lat="50.296663" lon="5.266551"><time>2026-05-02T17:41:13Z</time></trkpt>
</trkseg>
</trk>
<trk>
<name>nslnt38</name>
<cmt>v</cmt>
<desc>Nettinne Sentier n°38 </desc>
<link href="https://chemins.be/nettinne/sentier/38"/><trkseg>
<trkpt lat="50.291747" lon="5.240130"><time>2026-05-02T17:01:13Z</time></trkpt>
<trkpt lat="50.291622" lon="5.239060"><time>2026-05-02T17:11:13Z</time></trkpt>
<trkpt lat="50.291132" lon="5.238504"><time>2026-05-02T17:21:13Z</time></trkpt>
</trkseg>
</trk>
<trk>
<name>nslnt39</name>
<cmt>v</cmt>
<desc>Nettinne Sentier n°39 </desc>
<link href="https://chemins.be/nettinne/sentier/39"/><trkseg>
<trkpt lat="50.286570" lon="5.240160"><time>2026-05-02T17:01:13Z</time></trkpt>
<trkpt lat="50.287135" lon="5.240339"><time>2026-05-02T17:11:13Z</time></trkpt>
<trkpt lat="50.287298" lon="5.240160"><time>2026-05-02T17:21:13Z</time></trkpt>
<trkpt lat="50.287454" lon="5.239755"><time>2026-05-02T17:31:13Z</time></trkpt>
</trkseg>
</trk>
<trk>
<name>nslnt4</name>
<cmt>v</cmt>
<desc>Nettinne Chemin n°4 Rue Bois-Midi</desc>
<link href="https://chemins.be/nettinne/chemin/4"/><trkseg>
<trkpt lat="50.285047" lon="5.241732"><time>2026-05-02T17:01:13Z</time></trkpt>
<trkpt lat="50.284840" lon="5.242921"><time>2026-05-02T17:11:13Z</time></trkpt>
<trkpt lat="50.285191" lon="5.244078"><time>2026-05-02T17:21:13Z</time></trkpt>
<trkpt lat="50.285607" lon="5.245040"><time>2026-05-02T17:31:13Z</time></trkpt>
<trkpt lat="50.286374" lon="5.248254"><time>2026-05-02T17:41:13Z</time></trkpt>
<trkpt lat="50.286678" lon="5.251978"><time>2026-05-02T17:51:13Z</time></trkpt>
<trkpt lat="50.286704" lon="5.253256"><time>2026-05-02T18:01:13Z</time></trkpt>
<trkpt lat="50.286989" lon="5.254777"><time>2026-05-02T18:11:13Z</time></trkpt>
</trkseg></trk>
<trk>
<name>nslnt4</name>
<cmt>r</cmt>
<desc>Nettinne Chemin n°4 Rue Bois-Midi</desc>
<link href="https://chemins.be/nettinne/chemin/4"/><trkseg>
<trkpt lat="50.286989" lon="5.254777"><time>2026-05-02T18:11:13Z</time></trkpt>
<trkpt lat="50.286841" lon="5.255307"><time>2026-05-02T18:21:13Z</time></trkpt>
<trkpt lat="50.286870" lon="5.256248"><time>2026-05-02T18:31:13Z</time></trkpt>
<trkpt lat="50.286519" lon="5.257434"><time>2026-05-02T18:41:13Z</time></trkpt>
</trkseg>
</trk>
<trk>
<name>nslnt40</name>
<cmt>v</cmt>
<desc>Nettinne Sentier n°40 Piereuse Voye</desc>
<link href="https://chemins.be/nettinne/sentier/40"/><trkseg>
<trkpt lat="50.288945" lon="5.254111"><time>2026-05-02T17:01:13Z</time></trkpt>
<trkpt lat="50.289357" lon="5.253123"><time>2026-05-02T17:11:13Z</time></trkpt>
<trkpt lat="50.289386" lon="5.252941"><time>2026-05-02T17:21:13Z</time></trkpt>
</trkseg></trk>
<trk>
<name>nslnt40</name>
<cmt>q</cmt>
<desc>Nettinne Sentier n°40 Piereuse Voye</desc>
<link href="https://chemins.be/nettinne/sentier/40"/><trkseg>
<trkpt lat="50.289386" lon="5.252941"><time>2026-05-02T17:21:13Z</time></trkpt>
<trkpt lat="50.289474" lon="5.252016"><time>2026-05-02T17:31:13Z</time></trkpt>
<trkpt lat="50.289565" lon="5.250685"><time>2026-05-02T17:41:13Z</time></trkpt>
<trkpt lat="50.289743" lon="5.249720"><time>2026-05-02T17:51:13Z</time></trkpt>
</trkseg>
</trk>
<trk>
<name>nslnt41</name>
<cmt>b</cmt>
<desc>Nettinne Sentier n°41 </desc>
<link href="https://chemins.be/nettinne/sentier/41"/><trkseg>
<trkpt lat="50.300245" lon="5.260288"><time>2026-05-02T17:01:13Z</time></trkpt>
<trkpt lat="50.301618" lon="5.260650"><time>2026-05-02T17:11:13Z</time></trkpt>
<trkpt lat="50.302309" lon="5.260776"><time>2026-05-02T17:21:13Z</time></trkpt>
<trkpt lat="50.303122" lon="5.261409"><time>2026-05-02T17:31:13Z</time></trkpt>
</trkseg>
</trk>
<trk>
<name>nslnt42</name>
<cmt>v</cmt>
<desc>Nettinne Sentier n°42 </desc>
<link href="https://chemins.be/nettinne/sentier/42"/><trkseg>
<trkpt lat="50.287679" lon="5.257442"><time>2026-05-02T17:01:13Z</time></trkpt>
<trkpt lat="50.287463" lon="5.257480"><time>2026-05-02T17:11:13Z</time></trkpt>
</trkseg></trk>
<trk>
<name>nslnt42</name>
<cmt>s</cmt>
<desc>Nettinne Sentier n°42 </desc>
<link href="https://chemins.be/nettinne/sentier/42"/><trkseg>
<trkpt lat="50.287463" lon="5.257480"><time>2026-05-02T17:11:13Z</time></trkpt>
<trkpt lat="50.286652" lon="5.257689"><time>2026-05-02T17:21:13Z</time></trkpt>
</trkseg>
</trk>
<trk>
<name>nslnt43</name>
<cmt>d</cmt>
<desc>Nettinne Sentier n°43 </desc>
<link href="https://chemins.be/nettinne/sentier/43"/><trkseg>
<trkpt lat="50.305057" lon="5.275104"><time>2026-05-02T17:01:13Z</time></trkpt>
<trkpt lat="50.306157" lon="5.275898"><time>2026-05-02T17:11:13Z</time></trkpt>
<trkpt lat="50.306539" lon="5.276495"><time>2026-05-02T17:21:13Z</time></trkpt>
<trkpt lat="50.307168" lon="5.276521"><time>2026-05-02T17:31:13Z</time></trkpt>
<trkpt lat="50.307561" lon="5.276823"><time>2026-05-02T17:41:13Z</time></trkpt>
<trkpt lat="50.307747" lon="5.277192"><time>2026-05-02T17:51:13Z</time></trkpt>
</trkseg>
</trk>
<trk>
<name>nslnt44</name>
<cmt>v</cmt>
<desc>Nettinne Sentier n°44 </desc>
<link href="https://chemins.be/nettinne/sentier/44"/><trkseg>
<trkpt lat="50.310482" lon="5.278072"><time>2026-05-02T17:01:13Z</time></trkpt>
<trkpt lat="50.310849" lon="5.278276"><time>2026-05-02T17:11:13Z</time></trkpt>
</trkseg>
</trk>
<trk>
<name>nslnt5</name>
<cmt>r</cmt>
<desc>Nettinne Chemin n°5 Rue Bois-Midi</desc>
<link href="https://chemins.be/nettinne/chemin/5"/><trkseg>
<trkpt lat="50.287015" lon="5.254889"><time>2026-05-02T17:01:13Z</time></trkpt>
<trkpt lat="50.287370" lon="5.254419"><time>2026-05-02T17:11:13Z</time></trkpt>
<trkpt lat="50.287809" lon="5.253332"><time>2026-05-02T17:21:13Z</time></trkpt>
<trkpt lat="50.288141" lon="5.252356"><time>2026-05-02T17:31:13Z</time></trkpt>
<trkpt lat="50.288182" lon="5.251655"><time>2026-05-02T17:41:13Z</time></trkpt>
<trkpt lat="50.288009" lon="5.250698"><time>2026-05-02T17:51:13Z</time></trkpt>
<trkpt lat="50.288727" lon="5.249673"><time>2026-05-02T18:01:13Z</time></trkpt>
<trkpt lat="50.289151" lon="5.248403"><time>2026-05-02T18:11:13Z</time></trkpt>
<trkpt lat="50.289669" lon="5.247585"><time>2026-05-02T18:21:13Z</time></trkpt>
<trkpt lat="50.289033" lon="5.244977"><time>2026-05-02T18:31:13Z</time></trkpt>
<trkpt lat="50.289032" lon="5.243910"><time>2026-05-02T18:41:13Z</time></trkpt>
<trkpt lat="50.289329" lon="5.242695"><time>2026-05-02T18:51:13Z</time></trkpt>
<trkpt lat="50.289592" lon="5.242419"><time>2026-05-02T19:01:13Z</time></trkpt>
<trkpt lat="50.290032" lon="5.242469"><time>2026-05-02T19:11:13Z</time></trkpt>
<trkpt lat="50.290489" lon="5.242013"><time>2026-05-02T19:21:13Z</time></trkpt>
</trkseg></trk>
<trk>
<name>nslnt5</name>
<cmt>v</cmt>
<desc>Nettinne Chemin n°5 Rue Bois-Midi</desc>
<link href="https://chemins.be/nettinne/chemin/5"/><trkseg>
<trkpt lat="50.290489" lon="5.242013"><time>2026-05-02T19:21:13Z</time></trkpt>
<trkpt lat="50.291308" lon="5.240800"><time>2026-05-02T19:31:13Z</time></trkpt>
<trkpt lat="50.291720" lon="5.240216"><time>2026-05-02T19:41:13Z</time></trkpt>
<trkpt lat="50.291840" lon="5.239920"><time>2026-05-02T19:51:13Z</time></trkpt>
<trkpt lat="50.293191" lon="5.238443"><time>2026-05-02T20:01:13Z</time></trkpt>
<trkpt lat="50.294364" lon="5.237847"><time>2026-05-02T20:11:13Z</time></trkpt>
<trkpt lat="50.295007" lon="5.237311"><time>2026-05-02T20:21:13Z</time></trkpt>
<trkpt lat="50.295379" lon="5.236827"><time>2026-05-02T20:31:13Z</time></trkpt>
</trkseg>
</trk>
<trk>
<name>nslnt6</name>
<cmt>v</cmt>
<desc>Nettinne Chemin n°6 </desc>
<link href="https://chemins.be/nettinne/chemin/6"/><trkseg>
<trkpt lat="50.300133" lon="5.249014"><time>2026-05-02T17:01:13Z</time></trkpt>
<trkpt lat="50.300136" lon="5.249856"><time>2026-05-02T17:11:13Z</time></trkpt>
<trkpt lat="50.300196" lon="5.250222"><time>2026-05-02T17:21:13Z</time></trkpt>
<trkpt lat="50.300550" lon="5.253345"><time>2026-05-02T17:31:13Z</time></trkpt>
<trkpt lat="50.300563" lon="5.254005"><time>2026-05-02T17:41:13Z</time></trkpt>
<trkpt lat="50.300419" lon="5.255125"><time>2026-05-02T17:51:13Z</time></trkpt>
<trkpt lat="50.299881" lon="5.257277"><time>2026-05-02T18:01:13Z</time></trkpt>
<trkpt lat="50.299860" lon="5.259986"><time>2026-05-02T18:11:13Z</time></trkpt>
<trkpt lat="50.299244" lon="5.260648"><time>2026-05-02T18:21:13Z</time></trkpt>
<trkpt lat="50.299239" lon="5.261322"><time>2026-05-02T18:31:13Z</time></trkpt>
<trkpt lat="50.299742" lon="5.264854"><time>2026-05-02T18:41:13Z</time></trkpt>
<trkpt lat="50.300802" lon="5.268426"><time>2026-05-02T18:51:13Z</time></trkpt>
<trkpt lat="50.300938" lon="5.269523"><time>2026-05-02T19:01:13Z</time></trkpt>
<trkpt lat="50.300696" lon="5.270571"><time>2026-05-02T19:11:13Z</time></trkpt>
<trkpt lat="50.300199" lon="5.272022"><time>2026-05-02T19:21:13Z</time></trkpt>
</trkseg>
</trk>
<trk>
<name>nslnt7</name>
<cmt>v</cmt>
<desc>Nettinne Chemin n°7 </desc>
<link href="https://chemins.be/nettinne/chemin/7"/><trkseg>
<trkpt lat="50.279996" lon="5.249777"><time>2026-05-02T17:01:13Z</time></trkpt>
<trkpt lat="50.280437" lon="5.249701"><time>2026-05-02T17:11:13Z</time></trkpt>
<trkpt lat="50.280818" lon="5.249372"><time>2026-05-02T17:21:13Z</time></trkpt>
<trkpt lat="50.281334" lon="5.248862"><time>2026-05-02T17:31:13Z</time></trkpt>
<trkpt lat="50.282258" lon="5.249174"><time>2026-05-02T17:41:13Z</time></trkpt>
<trkpt lat="50.282960" lon="5.250239"><time>2026-05-02T17:51:13Z</time></trkpt>
</trkseg>
</trk>
<trk>
<name>nslnt8</name>
<cmt>r</cmt>
<desc>Nettinne Chemin n°8 Chemin de la Deffe / Rue Bois-des-Sarts</desc>
<link href="https://chemins.be/nettinne/chemin/8"/><trkseg>
<trkpt lat="50.289403" lon="5.260070"><time>2026-05-02T17:01:13Z</time></trkpt>
<trkpt lat="50.289639" lon="5.259794"><time>2026-05-02T17:11:13Z</time></trkpt>
<trkpt lat="50.290027" lon="5.259661"><time>2026-05-02T17:21:13Z</time></trkpt>
<trkpt lat="50.290716" lon="5.258818"><time>2026-05-02T17:31:13Z</time></trkpt>
<trkpt lat="50.291707" lon="5.258626"><time>2026-05-02T17:41:13Z</time></trkpt>
<trkpt lat="50.292343" lon="5.257725"><time>2026-05-02T17:51:13Z</time></trkpt>
<trkpt lat="50.292590" lon="5.257197"><time>2026-05-02T18:01:13Z</time></trkpt>
</trkseg></trk>
<trk>
<name>nslnt8</name>
<cmt>d</cmt>
<desc>Nettinne Chemin n°8 Chemin de la Deffe / Rue Bois-des-Sarts</desc>
<link href="https://chemins.be/nettinne/chemin/8"/><trkseg>
<trkpt lat="50.292590" lon="5.257197"><time>2026-05-02T18:01:13Z</time></trkpt>
<trkpt lat="50.292724" lon="5.257269"><time>2026-05-02T18:11:13Z</time></trkpt>
<trkpt lat="50.293708" lon="5.259112"><time>2026-05-02T18:21:13Z</time></trkpt>
<trkpt lat="50.294501" lon="5.260054"><time>2026-05-02T18:31:13Z</time></trkpt>
<trkpt lat="50.295745" lon="5.260515"><time>2026-05-02T18:41:13Z</time></trkpt>
<trkpt lat="50.296159" lon="5.260758"><time>2026-05-02T18:51:13Z</time></trkpt>
</trkseg></trk>
<trk>
<name>nslnt8</name>
<cmt>v</cmt>
<desc>Nettinne Chemin n°8 Chemin de la Deffe / Rue Bois-des-Sarts</desc>
<link href="https://chemins.be/nettinne/chemin/8"/><trkseg>
<trkpt lat="50.296159" lon="5.260758"><time>2026-05-02T18:51:13Z</time></trkpt>
<trkpt lat="50.297071" lon="5.261379"><time>2026-05-02T19:01:13Z</time></trkpt>
</trkseg>
</trk>
<trk>
<name>nslnt9</name>
<cmt>v</cmt>
<desc>Nettinne Chemin n°9 Rue Bois des Sarts</desc>
<link href="https://chemins.be/nettinne/chemin/9"/><trkseg>
<trkpt lat="50.292728" lon="5.255571"><time>2026-05-02T17:01:13Z</time></trkpt>
<trkpt lat="50.294194" lon="5.257886"><time>2026-05-02T17:11:13Z</time></trkpt>
<trkpt lat="50.296284" lon="5.260873"><time>2026-05-02T17:21:13Z</time></trkpt>
</trkseg>
</trk>
<trk>
<name>nslnti1</name>
<cmt>v</cmt>
<desc>Nettinne Chemin n°i1 </desc>
<link href="https://chemins.be/nettinne/chemin/i1"/><trkseg>
<trkpt lat="50.291420" lon="5.240768"><time>2026-05-02T17:01:13Z</time></trkpt>
<trkpt lat="50.292541" lon="5.241140"><time>2026-05-02T17:11:13Z</time></trkpt>
<trkpt lat="50.293096" lon="5.241557"><time>2026-05-02T17:21:13Z</time></trkpt>
<trkpt lat="50.296091" lon="5.243703"><time>2026-05-02T17:31:13Z</time></trkpt>
<trkpt lat="50.296743" lon="5.244361"><time>2026-05-02T17:41:13Z</time></trkpt>
<trkpt lat="50.297788" lon="5.246430"><time>2026-05-02T17:51:13Z</time></trkpt>
<trkpt lat="50.298307" lon="5.247899"><time>2026-05-02T18:01:13Z</time></trkpt>
<trkpt lat="50.299553" lon="5.249621"><time>2026-05-02T18:11:13Z</time></trkpt>
</trkseg>
</trk>
<trk>
<name>nslnti2</name>
<cmt>q</cmt>
<desc>Nettinne Chemin n°i2 </desc>
<link href="https://chemins.be/nettinne/chemin/i2"/><trkseg>
<trkpt lat="50.291697" lon="5.246991"><time>2026-05-02T17:01:13Z</time></trkpt>
<trkpt lat="50.292413" lon="5.247439"><time>2026-05-02T17:11:13Z</time></trkpt>
<trkpt lat="50.293181" lon="5.248057"><time>2026-05-02T17:21:13Z</time></trkpt>
<trkpt lat="50.293441" lon="5.248244"><time>2026-05-02T17:31:13Z</time></trkpt>
<trkpt lat="50.294301" lon="5.249818"><time>2026-05-02T17:41:13Z</time></trkpt>
<trkpt lat="50.294296" lon="5.250450"><time>2026-05-02T17:51:13Z</time></trkpt>
<trkpt lat="50.294575" lon="5.250469"><time>2026-05-02T18:01:13Z</time></trkpt>
<trkpt lat="50.294715" lon="5.250892"><time>2026-05-02T18:11:13Z</time></trkpt>
<trkpt lat="50.294955" lon="5.251276"><time>2026-05-02T18:21:13Z</time></trkpt>
<trkpt lat="50.295899" lon="5.253595"><time>2026-05-02T18:31:13Z</time></trkpt>
</trkseg>
</trk>
<trk>
<name>nslnti3</name>
<cmt>v</cmt>
<desc>Nettinne Chemin n°i3 </desc>
<link href="https://chemins.be/nettinne/chemin/i3"/><trkseg>
<trkpt lat="50.300517" lon="5.254144"><time>2026-05-02T17:01:13Z</time></trkpt>
<trkpt lat="50.300789" lon="5.253855"><time>2026-05-02T17:11:13Z</time></trkpt>
</trkseg>
</trk>
<trk>
<name>nslnti4</name>
<cmt>v</cmt>
<desc>Nettinne Sentier n°i4 Parcours santé de Nettinne</desc>
<link href="https://chemins.be/nettinne/sentier/i4"/><trkseg>
<trkpt lat="50.288998" lon="5.266469"><time>2026-05-02T17:01:13Z</time></trkpt>
<trkpt lat="50.288858" lon="5.266700"><time>2026-05-02T17:11:13Z</time></trkpt>
<trkpt lat="50.288542" lon="5.267542"><time>2026-05-02T17:21:13Z</time></trkpt>
<trkpt lat="50.288183" lon="5.267633"><time>2026-05-02T17:31:13Z</time></trkpt>
<trkpt lat="50.287833" lon="5.267912"><time>2026-05-02T17:41:13Z</time></trkpt>
<trkpt lat="50.288234" lon="5.268915"><time>2026-05-02T17:51:13Z</time></trkpt>
<trkpt lat="50.288138" lon="5.269307"><time>2026-05-02T18:01:13Z</time></trkpt>
<trkpt lat="50.287753" lon="5.268824"><time>2026-05-02T18:11:13Z</time></trkpt>
<trkpt lat="50.286864" lon="5.266366"><time>2026-05-02T18:21:13Z</time></trkpt>
<trkpt lat="50.286453" lon="5.263460"><time>2026-05-02T18:31:13Z</time></trkpt>
<trkpt lat="50.285398" lon="5.260777"><time>2026-05-02T18:41:13Z</time></trkpt>
<trkpt lat="50.285347" lon="5.260219"><time>2026-05-02T18:51:13Z</time></trkpt>
<trkpt lat="50.285706" lon="5.260310"><time>2026-05-02T19:01:13Z</time></trkpt>
<trkpt lat="50.286623" lon="5.262684"><time>2026-05-02T19:11:13Z</time></trkpt>
<trkpt lat="50.287452" lon="5.266356"><time>2026-05-02T19:21:13Z</time></trkpt>
<trkpt lat="50.287631" lon="5.266480"><time>2026-05-02T19:31:13Z</time></trkpt>
<trkpt lat="50.287915" lon="5.266072"><time>2026-05-02T19:41:13Z</time></trkpt>
<trkpt lat="50.288395" lon="5.266228"><time>2026-05-02T19:51:13Z</time></trkpt>
<trkpt lat="50.288631" lon="5.266566"><time>2026-05-02T20:01:13Z</time></trkpt>
</trkseg>
</trk>
<trk>
<name>nslnti5</name>
<cmt>q</cmt>
<desc>Nettinne Sentier n°i5 </desc>
<link href="https://chemins.be/nettinne/sentier/i5"/><trkseg>
<trkpt lat="50.289087" lon="5.272316"><time>2026-05-02T17:01:13Z</time></trkpt>
<trkpt lat="50.288638" lon="5.271925"><time>2026-05-02T17:11:13Z</time></trkpt>
<trkpt lat="50.288172" lon="5.270895"><time>2026-05-02T17:21:13Z</time></trkpt>
</trkseg>
</trk>
<trk>
<name>nslnti6</name>
<cmt>q</cmt>
<desc>Nettinne Sentier n°i6 </desc>
<link href="https://chemins.be/nettinne/sentier/i6"/><trkseg>
<trkpt lat="50.289395" lon="5.242549"><time>2026-05-02T17:01:13Z</time></trkpt>
<trkpt lat="50.289552" lon="5.242785"><time>2026-05-02T17:11:13Z</time></trkpt>
<trkpt lat="50.289847" lon="5.242801"><time>2026-05-02T17:21:13Z</time></trkpt>
<trkpt lat="50.290354" lon="5.243418"><time>2026-05-02T17:31:13Z</time></trkpt>
<trkpt lat="50.291321" lon="5.246229"><time>2026-05-02T17:41:13Z</time></trkpt>
<trkpt lat="50.291319" lon="5.247295"><time>2026-05-02T17:51:13Z</time></trkpt>
</trkseg>
</trk>
<trk>
<name>nslnti7</name>
<cmt>v</cmt>
<desc>Nettinne Sentier n°i7 </desc>
<link href="https://chemins.be/nettinne/sentier/i7"/><trkseg>
<trkpt lat="50.283877" lon="5.259149"><time>2026-05-02T17:01:13Z</time></trkpt>
<trkpt lat="50.283795" lon="5.259106"><time>2026-05-02T17:11:13Z</time></trkpt>
<trkpt lat="50.283889" lon="5.258538"><time>2026-05-02T17:21:13Z</time></trkpt>
<trkpt lat="50.283631" lon="5.258942"><time>2026-05-02T17:31:13Z</time></trkpt>
<trkpt lat="50.283633" lon="5.258556"><time>2026-05-02T17:41:13Z</time></trkpt>
<trkpt lat="50.283432" lon="5.259060"><time>2026-05-02T17:51:13Z</time></trkpt>
<trkpt lat="50.283564" lon="5.258241"><time>2026-05-02T18:01:13Z</time></trkpt>
<trkpt lat="50.283414" lon="5.258048"><time>2026-05-02T18:11:13Z</time></trkpt>
</trkseg>
</trk>
<trk>
<name>nslnti8</name>
<cmt>v</cmt>
<desc>Nettinne Sentier n°i8 </desc>
<link href="https://chemins.be/nettinne/sentier/i8"/><trkseg>
<trkpt lat="50.284085" lon="5.258939"><time>2026-05-02T17:01:13Z</time></trkpt>
<trkpt lat="50.284079" lon="5.258591"><time>2026-05-02T17:11:13Z</time></trkpt>
<trkpt lat="50.283631" lon="5.258398"><time>2026-05-02T17:21:13Z</time></trkpt>
<trkpt lat="50.283788" lon="5.258080"><time>2026-05-02T17:31:13Z</time></trkpt>
<trkpt lat="50.283736" lon="5.257844"><time>2026-05-02T17:41:13Z</time></trkpt>
<trkpt lat="50.283627" lon="5.258072"><time>2026-05-02T17:51:13Z</time></trkpt>
<trkpt lat="50.283413" lon="5.258052"><time>2026-05-02T18:01:13Z</time></trkpt>
<trkpt lat="50.283197" lon="5.258106"><time>2026-05-02T18:11:13Z</time></trkpt>
</trkseg>
</trk>
<trk>
<name>nslnti9</name>
<cmt>v</cmt>
<desc>Nettinne Sentier n°i9 </desc>
<link href="https://chemins.be/nettinne/sentier/i9"/><trkseg>
<trkpt lat="50.293787" lon="5.255789"><time>2026-05-02T17:01:13Z</time></trkpt>
<trkpt lat="50.294191" lon="5.256304"><time>2026-05-02T17:11:13Z</time></trkpt>
<trkpt lat="50.294356" lon="5.256035"><time>2026-05-02T17:21:13Z</time></trkpt>
<trkpt lat="50.295390" lon="5.256840"><time>2026-05-02T17:31:13Z</time></trkpt>
<trkpt lat="50.296391" lon="5.258481"><time>2026-05-02T17:41:13Z</time></trkpt>
<trkpt lat="50.297488" lon="5.260895"><time>2026-05-02T17:51:13Z</time></trkpt>
<trkpt lat="50.297522" lon="5.261196"><time>2026-05-02T18:01:13Z</time></trkpt>
</trkseg>
</trk>
</gpx>